Salt Lake City, Utah
Traffic Map
Current Weather Conditions
Salt Lake City, Utah
Scattered Clouds
Scattered Clouds
28°
Feels Like: 28°
Wind Chill: 28° Ceiling: Unl
Heat Index: 28° Visibility: 10mi
Dew Point: Wind: 7mph
Humidity: 31% Direction: 160° (SSE)
Pressure: 30.03in Gusts: 23mph
Raw Report DataKSLC 031453Z 16006G20KT 10SM SCT250 28/09 A3003 RMK AO2 SLP100 T02780094 51008
Traffic Incident Summary
Active as of:
Severity:
Category:
InformationThere was an issue retrieving the traffic information for this location. Please try a different location or try again shortly.
Advertisements
Track Severe Weather on mobile